createdAt,value
2019-05-22T04:00:28.850Z,168.00
2019-05-22T04:02:28.826Z,176.00
2019-05-22T04:04:28.804Z,180.00
2019-05-22T04:06:28.803Z,152.00
2019-05-22T04:08:28.751Z,132.00
2019-05-22T04:10:28.731Z,144.00
2019-05-22T04:12:28.733Z,140.00
2019-05-22T04:14:28.687Z,128.00
2019-05-22T04:16:28.663Z,132.00
2019-05-22T04:18:28.659Z,144.00
2019-05-22T04:20:28.625Z,156.00
2019-05-22T04:22:36.132Z,200.00
2019-05-22T04:24:28.593Z,264.00
2019-05-22T04:26:28.562Z,288.00
2019-05-22T04:28:28.545Z,324.00
2019-05-22T04:30:28.514Z,328.00
2019-05-22T04:32:28.495Z,336.00
2019-05-22T04:34:28.476Z,316.00
2019-05-22T04:36:28.499Z,316.00
2019-05-22T04:38:28.468Z,316.00
2019-05-22T04:40:28.419Z,320.00
2019-05-22T04:42:28.384Z,344.00
2019-05-22T04:44:28.431Z,356.00
2019-05-22T04:46:28.383Z,352.00
2019-05-22T04:48:28.354Z,372.00
2019-05-22T04:50:28.294Z,388.00
2019-05-22T04:52:28.413Z,368.00
2019-05-22T04:54:28.294Z,372.00
2019-05-22T04:56:28.304Z,376.00
2019-05-22T04:58:28.230Z,376.00
2019-05-22T05:00:28.241Z,360.00
2019-05-22T05:02:28.189Z,372.00
2019-05-22T05:04:28.153Z,356.00
2019-05-22T05:06:28.156Z,340.00
2019-05-22T05:08:28.125Z,356.00
2019-05-22T05:10:28.084Z,384.00
2019-05-22T05:12:28.079Z,384.00
2019-05-22T05:14:28.052Z,420.00
2019-05-22T05:16:28.024Z,512.00
2019-05-22T05:18:28.023Z,520.00
2019-05-22T05:20:27.987Z,548.00
2019-05-22T05:22:27.964Z,604.00
2019-05-22T05:24:27.950Z,668.00
2019-05-22T05:26:27.924Z,764.00
2019-05-22T05:28:27.901Z,816.00
2019-05-22T05:30:27.884Z,804.00
2019-05-22T05:32:27.847Z,804.00
2019-05-22T05:34:27.837Z,824.00
2019-05-22T05:36:27.830Z,840.00
2019-05-22T05:38:27.784Z,852.00
2019-05-22T05:40:27.872Z,900.00
2019-05-22T05:42:27.754Z,900.00
2019-05-22T05:44:27.718Z,864.00
2019-05-22T05:46:27.713Z,904.00
2019-05-22T05:48:27.689Z,952.00
2019-05-22T05:50:39.027Z,972.00
2019-05-22T05:52:28.646Z,980.00
2019-05-22T05:54:30.224Z,960.00
2019-05-22T05:56:27.681Z,984.00
2019-05-22T05:58:27.639Z,1016.00
2019-05-22T06:00:27.595Z,1020.00
2019-05-22T06:02:27.535Z,1012.00
2019-05-22T06:04:34.639Z,1048.00
2019-05-22T06:06:28.486Z,1108.00
2019-05-22T06:08:27.510Z,1112.00
2019-05-22T06:10:27.453Z,1140.00
2019-05-22T06:12:27.426Z,1152.00
2019-05-22T06:14:27.411Z,1152.00
2019-05-22T06:16:27.376Z,1152.00
2019-05-22T06:18:27.360Z,1160.00
2019-05-22T06:20:27.355Z,1148.00
2019-05-22T06:22:27.319Z,1148.00
2019-05-22T06:24:27.303Z,1256.00
2019-05-22T06:26:27.289Z,1308.00
2019-05-22T06:28:27.256Z,1300.00
2019-05-22T06:30:27.230Z,1288.00
2019-05-22T06:32:27.219Z,1332.00
2019-05-22T06:34:27.194Z,1328.00
2019-05-22T06:36:27.177Z,1268.00
2019-05-22T06:38:27.149Z,1276.00
2019-05-22T06:40:27.168Z,1272.00
2019-05-22T06:42:27.116Z,1316.00
2019-05-22T06:44:27.100Z,1348.00
2019-05-22T06:46:27.066Z,1352.00
2019-05-22T06:48:27.051Z,1424.00
2019-05-22T06:50:27.020Z,1512.00
2019-05-22T06:52:27.000Z,1584.00
2019-05-22T06:54:26.973Z,1568.00
2019-05-22T06:56:27.081Z,1608.00
2019-05-22T06:58:26.999Z,1728.00
2019-05-22T07:00:26.952Z,1744.00
2019-05-22T07:02:26.935Z,1668.00
2019-05-22T07:04:26.888Z,1688.00
2019-05-22T07:06:26.841Z,1720.00
2019-05-22T07:08:26.822Z,1684.00
2019-05-22T07:10:26.827Z,1620.00
2019-05-22T07:12:26.783Z,1584.00
2019-05-22T07:14:26.788Z,1612.00
2019-05-22T07:16:26.734Z,1756.00
2019-05-22T07:18:26.711Z,1724.00
2019-05-22T07:20:26.709Z,1700.00
2019-05-22T07:22:26.676Z,1824.00
2019-05-22T07:24:26.666Z,1956.00
2019-05-22T07:26:26.633Z,2136.00
2019-05-22T07:28:26.649Z,2340.00
2019-05-22T07:30:26.604Z,2360.00
2019-05-22T07:32:30.554Z,2344.00
2019-05-22T07:34:26.568Z,2480.00
2019-05-22T07:36:26.534Z,2712.00
2019-05-22T07:38:26.629Z,3096.00
2019-05-22T07:40:26.542Z,3292.00
2019-05-22T07:42:26.518Z,3488.00
2019-05-22T07:44:26.452Z,3648.00
2019-05-22T07:46:26.519Z,3544.00
2019-05-22T07:48:26.457Z,3644.00
2019-05-22T07:50:26.399Z,4096.00
2019-05-22T07:52:26.347Z,5016.00
2019-05-22T07:54:26.393Z,5404.00
2019-05-22T07:56:26.349Z,5460.00
2019-05-22T07:58:26.330Z,5412.00
2019-05-22T08:00:26.283Z,5412.00
2019-05-22T08:02:26.248Z,5372.00
2019-05-22T08:04:26.315Z,5772.00
2019-05-22T08:06:26.242Z,6128.00
2019-05-22T08:08:26.200Z,6284.00
2019-05-22T08:10:26.172Z,6420.00
2019-05-22T08:12:26.185Z,6244.00
2019-05-22T08:14:26.122Z,6160.00
2019-05-22T08:16:26.121Z,6160.00
2019-05-22T08:18:26.072Z,6012.00
2019-05-22T08:20:26.105Z,5732.00
2019-05-22T08:22:26.053Z,5684.00
2019-05-22T08:24:26.041Z,5604.00
2019-05-22T08:26:25.995Z,5948.00
2019-05-22T08:28:26.012Z,6244.00
2019-05-22T08:30:25.952Z,7092.00
2019-05-22T08:32:25.954Z,7752.00
2019-05-22T08:34:25.898Z,7988.00
2019-05-22T08:36:25.954Z,7988.00
2019-05-22T08:38:25.911Z,7320.00
2019-05-22T08:40:25.847Z,6892.00
2019-05-22T08:42:25.833Z,7116.00
2019-05-22T08:44:25.827Z,8052.00
2019-05-22T08:46:25.787Z,9392.00
2019-05-22T08:48:25.781Z,10940.00
2019-05-22T08:50:25.732Z,12128.00
2019-05-22T08:52:25.759Z,12348.00
2019-05-22T08:54:25.707Z,12440.00
2019-05-22T08:56:25.705Z,11440.00
2019-05-22T08:58:25.652Z,9884.00
2019-05-22T09:00:25.727Z,9588.00
2019-05-22T09:02:25.610Z,9904.00
2019-05-22T09:04:25.615Z,11020.00
2019-05-22T09:06:25.560Z,10980.00
2019-05-22T09:08:25.622Z,11544.00
2019-05-22T09:10:26.292Z,11344.00
2019-05-22T09:12:25.517Z,11196.00
2019-05-22T09:14:25.495Z,10508.00
2019-05-22T09:16:25.588Z,10340.00
2019-05-22T09:18:25.455Z,9776.00
2019-05-22T09:20:25.465Z,10492.00
2019-05-22T09:22:39.390Z,11224.00
2019-05-22T09:24:26.530Z,11196.00
2019-05-22T09:26:25.386Z,13632.00
2019-05-22T09:28:25.320Z,10820.00
2019-05-22T09:30:25.299Z,10972.00
2019-05-22T09:32:25.500Z,10552.00
2019-05-22T09:34:25.293Z,11776.00
2019-05-22T09:36:25.344Z,11312.00
2019-05-22T09:38:25.234Z,11460.00
2019-05-22T09:40:25.222Z,11492.00
2019-05-22T09:42:25.180Z,11104.00
2019-05-22T09:44:25.217Z,11040.00
2019-05-22T09:46:25.133Z,11792.00
2019-05-22T09:48:25.102Z,11584.00
2019-05-22T09:50:25.103Z,13068.00
2019-05-22T09:52:25.071Z,10648.00
2019-05-22T09:54:25.035Z,9744.00
2019-05-22T09:56:25.025Z,9540.00
2019-05-22T09:58:25.009Z,8612.00
2019-05-22T10:00:24.966Z,9440.00
2019-05-22T10:02:24.959Z,9936.00
2019-05-22T10:04:24.939Z,13232.00
2019-05-22T10:06:24.902Z,10724.00
2019-05-22T10:08:24.909Z,11476.00
2019-05-22T10:10:24.862Z,11400.00
2019-05-22T10:12:24.894Z,12708.00
2019-05-22T10:14:24.844Z,9404.00
2019-05-22T10:16:24.870Z,8920.00
2019-05-22T10:18:24.773Z,8124.00
2019-05-22T10:20:24.842Z,7608.00
2019-05-22T10:22:24.753Z,9988.00
2019-05-22T10:24:24.712Z,10612.00
2019-05-22T10:26:24.697Z,8232.00
2019-05-22T10:28:24.763Z,7988.00
2019-05-22T10:30:24.668Z,8660.00
2019-05-22T10:32:24.678Z,8828.00
2019-05-22T10:34:24.600Z,12208.00
2019-05-22T10:36:24.639Z,10672.00
2019-05-22T10:38:24.583Z,11220.00
2019-05-22T10:40:24.629Z,10828.00
2019-05-22T10:42:24.518Z,10320.00
2019-05-22T10:44:24.546Z,9948.00
2019-05-22T10:46:24.485Z,9372.00
2019-05-22T10:48:24.498Z,9584.00
2019-05-22T10:50:24.429Z,8560.00
2019-05-22T10:52:24.453Z,10252.00
2019-05-22T10:54:24.405Z,9840.00
2019-05-22T10:56:24.365Z,7192.00
2019-05-22T10:58:24.341Z,7640.00
2019-05-22T11:00:24.401Z,7380.00
2019-05-22T11:02:24.294Z,9532.00
2019-05-22T11:04:24.278Z,8604.00
2019-05-22T11:06:24.264Z,9964.00
2019-05-22T11:08:24.281Z,7788.00
2019-05-22T11:10:24.224Z,8624.00
2019-05-22T11:12:24.197Z,8692.00
2019-05-22T11:14:24.166Z,9292.00
2019-05-22T11:16:24.237Z,9664.00
2019-05-22T11:18:24.124Z,9732.00
2019-05-22T11:20:24.105Z,9824.00
2019-05-22T11:22:24.092Z,8884.00
2019-05-22T11:24:24.111Z,8908.00
2019-05-22T11:26:24.073Z,8000.00
2019-05-22T11:28:24.018Z,7320.00
2019-05-22T11:30:24.053Z,6840.00
2019-05-22T11:32:23.989Z,6320.00
2019-05-22T11:34:23.966Z,7152.00
2019-05-22T11:36:23.934Z,5500.00
2019-05-22T11:38:23.960Z,7016.00
2019-05-22T11:40:23.893Z,8116.00
2019-05-22T11:42:23.871Z,8496.00
2019-05-22T11:44:23.895Z,9008.00
2019-05-22T11:46:23.825Z,8212.00
2019-05-22T11:48:23.801Z,8676.00
2019-05-22T11:50:23.833Z,6828.00
2019-05-22T11:52:23.763Z,8864.00
2019-05-22T11:54:23.738Z,9356.00
2019-05-22T11:56:23.750Z,8960.00
2019-05-22T11:58:23.732Z,8272.00
2019-05-22T12:00:23.689Z,8744.00
2019-05-22T12:02:23.710Z,7100.00
2019-05-22T12:04:23.639Z,9236.00
2019-05-22T12:06:23.620Z,8816.00
2019-05-22T12:08:23.583Z,9332.00
2019-05-22T12:10:23.643Z,9384.00
2019-05-22T12:12:23.555Z,6696.00
2019-05-22T12:14:23.523Z,8704.00
2019-05-22T12:16:23.528Z,9132.00
2019-05-22T12:18:23.509Z,9224.00
2019-05-22T12:20:23.466Z,7092.00
2019-05-22T12:22:23.461Z,9296.00
2019-05-22T12:24:27.936Z,7720.00
2019-05-22T12:26:24.400Z,7032.00
2019-05-22T12:28:23.389Z,8724.00
2019-05-22T12:30:23.346Z,8408.00
2019-05-22T12:32:23.382Z,8552.00
2019-05-22T12:34:23.301Z,9064.00
2019-05-22T12:36:23.313Z,8224.00
2019-05-22T12:38:26.681Z,8164.00
2019-05-22T12:40:23.241Z,7804.00
2019-05-22T12:42:23.254Z,9380.00
2019-05-22T12:44:23.269Z,8616.00
2019-05-22T12:46:23.178Z,8756.00
2019-05-22T12:48:23.158Z,8908.00
2019-05-22T12:50:23.182Z,8604.00
2019-05-22T12:52:23.110Z,7048.00
2019-05-22T12:54:23.169Z,6612.00
2019-05-22T12:56:23.125Z,6184.00
2019-05-22T12:58:23.041Z,7512.00
2019-05-22T13:00:23.080Z,6012.00
2019-05-22T13:02:23.058Z,7004.00
2019-05-22T13:04:22.983Z,7976.00
2019-05-22T13:06:22.985Z,8092.00
2019-05-22T13:08:22.969Z,7504.00
2019-05-22T13:10:22.914Z,5872.00
2019-05-22T13:12:22.929Z,7544.00
2019-05-22T13:14:22.919Z,7112.00
2019-05-22T13:16:22.852Z,7344.00
2019-05-22T13:18:22.889Z,7412.00
2019-05-22T13:20:40.467Z,7788.00
2019-05-22T13:22:23.795Z,7952.00
2019-05-22T13:24:22.800Z,8404.00
2019-05-22T13:26:22.784Z,6996.00
2019-05-22T13:28:22.723Z,7856.00
2019-05-22T13:30:22.748Z,8500.00
2019-05-22T13:32:22.710Z,8176.00
2019-05-22T13:34:22.674Z,7888.00
2019-05-22T13:36:22.686Z,7668.00
2019-05-22T13:38:22.629Z,7936.00
2019-05-22T13:40:27.450Z,8228.00
2019-05-22T13:42:23.619Z,6568.00
2019-05-22T13:44:22.560Z,6408.00
2019-05-22T13:46:22.548Z,8424.00
2019-05-22T13:48:22.520Z,7808.00
2019-05-22T13:50:22.483Z,8132.00
2019-05-22T13:52:22.480Z,8044.00
2019-05-22T13:54:22.445Z,7904.00
2019-05-22T13:56:25.367Z,8092.00
2019-05-22T13:58:22.430Z,7956.00
2019-05-22T14:00:22.378Z,8280.00
2019-05-22T14:02:26.489Z,8300.00
2019-05-22T14:04:22.353Z,8304.00
2019-05-22T14:06:22.393Z,8368.00
2019-05-22T14:08:22.338Z,8536.00
2019-05-22T14:10:22.285Z,8496.00
2019-05-22T14:12:22.290Z,8332.00
2019-05-22T14:14:22.240Z,8204.00
2019-05-22T14:16:22.210Z,8172.00
2019-05-22T14:18:22.210Z,6360.00
2019-05-22T14:20:22.205Z,6696.00
2019-05-22T14:22:22.152Z,8088.00
2019-05-22T14:24:22.142Z,8500.00
2019-05-22T14:26:22.149Z,7032.00
2019-05-22T14:28:22.123Z,7092.00
2019-05-22T14:30:22.065Z,7272.00
2019-05-22T14:32:30.075Z,7768.00
2019-05-22T14:34:23.077Z,7324.00
2019-05-22T14:36:22.016Z,6476.00
2019-05-22T14:38:22.028Z,7016.00
2019-05-22T14:40:21.999Z,6920.00
2019-05-22T14:42:21.953Z,6968.00
2019-05-22T14:44:21.969Z,6572.00
2019-05-22T14:46:21.970Z,5808.00
2019-05-22T14:48:21.954Z,7448.00
2019-05-22T14:50:21.913Z,7524.00
2019-05-22T14:52:21.872Z,7984.00
2019-05-22T14:54:21.825Z,7988.00
2019-05-22T14:56:21.807Z,7972.00
2019-05-22T14:58:21.804Z,7808.00
2019-05-22T15:00:21.786Z,7496.00
2019-05-22T15:02:21.754Z,7640.00
2019-05-22T15:04:21.743Z,7540.00
2019-05-22T15:06:21.690Z,7584.00
2019-05-22T15:08:21.696Z,7512.00
2019-05-22T15:10:21.674Z,7512.00
2019-05-22T15:12:21.652Z,7388.00
2019-05-22T15:14:21.626Z,6932.00
2019-05-22T15:16:21.615Z,6612.00
2019-05-22T15:18:21.568Z,7424.00
2019-05-22T15:20:21.550Z,7252.00
2019-05-22T15:22:21.541Z,6996.00
2019-05-22T15:24:21.508Z,6908.00
2019-05-22T15:26:21.535Z,6584.00
2019-05-22T15:28:21.495Z,5576.00
2019-05-22T15:30:21.443Z,5272.00
2019-05-22T15:32:21.459Z,5764.00
2019-05-22T15:34:21.418Z,5340.00
2019-05-22T15:36:21.382Z,4408.00
2019-05-22T15:38:21.402Z,3920.00
2019-05-22T15:40:21.333Z,4644.00
2019-05-22T15:42:21.327Z,4824.00
2019-05-22T15:44:21.364Z,5032.00
2019-05-22T15:46:21.286Z,5208.00
2019-05-22T15:48:21.286Z,5284.00
2019-05-22T15:50:21.315Z,4368.00
2019-05-22T15:52:21.232Z,4340.00
2019-05-22T15:54:21.242Z,4244.00
2019-05-22T15:56:21.170Z,4116.00
2019-05-22T15:58:21.150Z,4036.00
2019-05-22T16:00:21.164Z,4100.00
2019-05-22T16:02:22.111Z,4268.00
2019-05-22T16:04:21.106Z,4492.00
2019-05-22T16:06:21.077Z,4672.00
2019-05-22T16:08:21.053Z,4820.00
2019-05-22T16:10:21.026Z,4768.00
2019-05-22T16:12:21.003Z,4752.00
2019-05-22T16:14:21.006Z,4792.00
2019-05-22T16:16:20.963Z,4812.00
2019-05-22T16:18:20.962Z,4564.00
2019-05-22T16:20:20.938Z,4308.00
2019-05-22T16:22:20.893Z,3916.00
2019-05-22T16:24:20.888Z,3716.00
2019-05-22T16:26:20.858Z,3604.00
2019-05-22T16:28:20.839Z,3176.00
2019-05-22T16:30:20.874Z,3120.00
2019-05-22T16:32:20.804Z,3176.00
2019-05-22T16:34:20.766Z,3640.00
2019-05-22T16:36:20.779Z,3756.00
2019-05-22T16:38:20.748Z,3840.00
2019-05-22T16:40:20.704Z,4360.00
2019-05-22T16:42:20.667Z,4652.00
2019-05-22T16:44:20.700Z,4264.00
2019-05-22T16:46:20.650Z,3828.00
2019-05-22T16:48:29.003Z,3348.00
2019-05-22T16:50:21.655Z,3288.00
2019-05-22T16:52:20.586Z,3348.00
2019-05-22T16:54:21.227Z,3132.00
2019-05-22T16:56:20.565Z,3004.00
2019-05-22T16:58:20.496Z,2968.00
2019-05-22T17:00:20.475Z,2956.00
2019-05-22T17:02:20.492Z,2956.00
2019-05-22T17:04:20.471Z,2924.00
2019-05-22T17:06:20.419Z,2884.00
2019-05-22T17:08:20.422Z,2924.00
2019-05-22T17:10:20.399Z,2984.00
2019-05-22T17:12:20.363Z,3004.00
2019-05-22T17:14:20.382Z,2964.00
2019-05-22T17:16:20.306Z,2908.00
2019-05-22T17:18:20.302Z,3088.00
2019-05-22T17:20:20.310Z,2936.00
2019-05-22T17:22:20.239Z,2580.00
2019-05-22T17:24:20.240Z,2444.00
2019-05-22T17:26:20.200Z,2356.00
2019-05-22T17:28:20.296Z,2288.00
2019-05-22T17:30:20.930Z,2308.00
2019-05-22T17:32:20.135Z,2304.00
2019-05-22T17:34:20.145Z,2288.00
2019-05-22T17:36:20.098Z,2240.00
2019-05-22T17:38:20.081Z,2144.00
2019-05-22T17:40:20.062Z,2032.00
2019-05-22T17:42:20.053Z,1912.00
2019-05-22T17:44:20.057Z,1804.00
2019-05-22T17:46:19.996Z,1700.00
2019-05-22T17:48:19.975Z,1576.00
2019-05-22T17:50:26.739Z,1452.00
2019-05-22T17:52:20.928Z,1304.00
2019-05-22T17:54:19.915Z,1156.00
2019-05-22T17:56:19.888Z,1012.00
2019-05-22T17:58:19.865Z,888.00
2019-05-22T18:00:19.847Z,764.00
2019-05-22T18:02:19.828Z,676.00
2019-05-22T18:04:19.790Z,620.00
2019-05-22T18:06:19.785Z,584.00
2019-05-22T18:08:19.760Z,536.00
2019-05-22T18:10:19.727Z,504.00
2019-05-22T18:12:19.716Z,480.00
2019-05-22T18:14:19.751Z,460.00
2019-05-22T18:16:19.655Z,444.00
2019-05-22T18:18:19.683Z,452.00
2019-05-22T18:20:19.623Z,472.00
2019-05-22T18:22:19.599Z,532.00
2019-05-22T18:24:19.623Z,612.00
2019-05-22T18:26:19.553Z,696.00
2019-05-22T18:28:19.524Z,800.00
2019-05-22T18:30:19.572Z,836.00
2019-05-22T18:32:19.501Z,896.00
2019-05-22T18:34:19.467Z,880.00
2019-05-22T18:36:19.468Z,852.00
2019-05-22T18:38:19.442Z,800.00
2019-05-22T18:40:19.414Z,732.00
2019-05-22T18:42:19.411Z,708.00
2019-05-22T18:44:19.350Z,684.00
2019-05-22T18:46:19.343Z,648.00
2019-05-22T18:48:19.340Z,600.00
2019-05-22T18:50:19.284Z,556.00
2019-05-22T18:52:19.330Z,524.00
2019-05-22T18:54:19.249Z,496.00
2019-05-22T18:56:19.286Z,464.00
2019-05-22T18:58:19.259Z,440.00
2019-05-22T19:00:19.179Z,408.00
2019-05-22T19:02:19.182Z,376.00
2019-05-22T19:04:19.178Z,340.00
2019-05-22T19:06:29.772Z,312.00
2019-05-22T19:08:20.120Z,280.00
2019-05-22T19:10:19.097Z,252.00
2019-05-22T19:12:19.043Z,224.00
2019-05-22T19:14:19.059Z,196.00
2019-05-22T19:16:19.020Z,172.00
2019-05-22T19:18:18.980Z,152.00
2019-05-22T19:20:19.013Z,132.00
2019-05-22T19:22:18.976Z,112.00
2019-05-22T19:24:18.956Z,100.00
2019-05-22T19:26:18.937Z,88.00
2019-05-22T19:28:18.873Z,72.00
2019-05-22T19:30:18.863Z,60.00
2019-05-22T19:32:18.895Z,52.00
2019-05-22T19:34:18.830Z,40.00
2019-05-22T19:36:18.793Z,36.00
2019-05-22T19:38:18.776Z,28.00
2019-05-22T19:40:18.803Z,20.00
2019-05-22T19:42:18.797Z,16.00
2019-05-22T19:44:18.704Z,12.00
2019-05-22T19:46:18.742Z,8.00
2019-05-22T19:48:18.661Z,8.00
2019-05-22T19:50:23.302Z,4.00
2019-05-22T19:52:22.479Z,4.00
2019-05-22T19:54:18.650Z,4.00
2019-05-22T19:56:18.587Z,4.00
2019-05-22T19:58:21.804Z,0.00
2019-05-22T20:00:18.554Z,0.00
2019-05-22T20:02:18.551Z,0.00
2019-05-22T20:04:18.494Z,0.00
2019-05-22T20:06:18.513Z,0.00
2019-05-22T20:08:18.466Z,0.00
2019-05-22T20:10:18.442Z,0.00
2019-05-22T20:12:18.402Z,0.00
2019-05-22T20:14:18.401Z,0.00
2019-05-22T20:16:18.388Z,0.00
2019-05-22T20:18:18.359Z,0.00
2019-05-22T20:20:18.352Z,0.00
2019-05-22T20:22:18.337Z,0.00
2019-05-22T20:24:18.285Z,0.00
2019-05-22T20:26:18.302Z,0.00
2019-05-22T20:28:18.272Z,0.00
2019-05-22T20:30:18.229Z,0.00
2019-05-22T20:32:18.207Z,0.00
2019-05-22T20:34:18.178Z,0.00
2019-05-22T20:36:18.148Z,0.00
2019-05-22T20:38:18.171Z,0.00
2019-05-22T20:40:18.143Z,0.00
2019-05-22T20:42:18.090Z,0.00
2019-05-22T20:44:18.111Z,0.00
2019-05-22T20:46:18.074Z,0.00
2019-05-22T20:48:18.024Z,0.00
2019-05-22T20:50:18.045Z,0.00
2019-05-22T20:52:18.006Z,0.00
2019-05-22T20:54:17.958Z,0.00
2019-05-22T20:56:17.979Z,0.00
2019-05-22T20:58:17.977Z,0.00
2019-05-22T21:00:17.894Z,0.00
2019-05-22T21:02:17.924Z,0.00
2019-05-22T21:04:17.880Z,0.00
2019-05-22T21:06:17.854Z,0.00
2019-05-22T21:08:17.857Z,0.00
2019-05-22T21:10:17.789Z,0.00
2019-05-22T21:12:17.965Z,0.00
2019-05-22T21:14:17.942Z,0.00
2019-05-22T21:16:17.847Z,0.00
2019-05-22T21:18:17.818Z,0.00
2019-05-22T21:20:17.744Z,0.00
2019-05-22T21:22:17.766Z,0.00
2019-05-22T21:24:17.684Z,0.00
2019-05-22T21:26:17.643Z,0.00
2019-05-22T21:28:17.621Z,0.00
2019-05-22T21:30:17.596Z,0.00
2019-05-22T21:32:17.567Z,0.00
2019-05-22T21:34:17.561Z,0.00
2019-05-22T21:36:17.520Z,0.00
2019-05-22T21:38:17.494Z,0.00
2019-05-22T21:40:17.499Z,0.00
2019-05-22T21:42:18.485Z,0.00
2019-05-22T21:44:17.428Z,0.00
2019-05-22T21:46:17.429Z,0.00
2019-05-22T21:48:17.709Z,0.00
2019-05-22T21:50:17.981Z,0.00
2019-05-22T21:52:17.697Z,0.00
2019-05-22T21:54:17.347Z,0.00
2019-05-22T21:56:17.310Z,0.00
2019-05-22T21:58:17.292Z,0.00
2019-05-22T22:00:17.263Z,0.00
2019-05-22T22:02:17.248Z,0.00
2019-05-22T22:04:17.222Z,0.00
2019-05-22T22:06:17.190Z,0.00
2019-05-22T22:08:17.190Z,0.00
2019-05-22T22:10:17.178Z,0.00
2019-05-22T22:12:17.127Z,0.00
2019-05-22T22:14:17.119Z,0.00
2019-05-22T22:16:17.093Z,0.00
2019-05-22T22:18:17.058Z,0.00
2019-05-22T22:20:17.051Z,0.00
2019-05-22T22:22:17.014Z,0.00
2019-05-22T22:24:17.020Z,0.00
2019-05-22T22:26:25.565Z,0.00
2019-05-22T22:28:17.950Z,0.00
2019-05-22T22:30:16.961Z,0.00
2019-05-22T22:32:23.964Z,0.00
2019-05-22T22:34:16.888Z,0.00
2019-05-22T22:36:16.891Z,0.00
2019-05-22T22:38:16.862Z,0.00
2019-05-22T22:40:16.853Z,0.00
2019-05-22T22:42:16.823Z,0.00
2019-05-22T22:44:16.794Z,0.00
2019-05-22T22:46:16.763Z,0.00
2019-05-22T22:48:16.768Z,0.00
2019-05-22T22:50:16.720Z,0.00
2019-05-22T22:52:16.715Z,0.00
2019-05-22T22:54:16.794Z,0.00
2019-05-22T22:56:16.675Z,0.00
2019-05-22T22:58:17.815Z,0.00
2019-05-22T23:00:16.667Z,0.00
2019-05-22T23:02:16.604Z,0.00
2019-05-22T23:04:16.594Z,0.00
2019-05-22T23:06:16.552Z,0.00
2019-05-22T23:08:16.533Z,0.00
2019-05-22T23:10:16.532Z,0.00
2019-05-22T23:12:16.503Z,0.00
2019-05-22T23:14:16.523Z,0.00
2019-05-22T23:16:16.447Z,0.00
2019-05-22T23:18:16.440Z,0.00
2019-05-22T23:20:16.422Z,0.00
2019-05-22T23:22:16.389Z,0.00
2019-05-22T23:24:16.375Z,0.00
2019-05-22T23:26:16.335Z,0.00
2019-05-22T23:28:25.164Z,0.00
